sensor_id;sensor_type;location;lat;lon;timestamp;pressure;altitude;pressure_sealevel;temperature;humidity
13869;BME280;7004;48.206;16.402;2023-03-03T00:01:35;99935.22;;;2.82;74.97
13869;BME280;7004;48.206;16.402;2023-03-03T00:04:02;99940.06;;;2.65;75.57
13869;BME280;7004;48.206;16.402;2023-03-03T00:06:28;99949.00;;;2.56;76.04
13869;BME280;7004;48.206;16.402;2023-03-03T00:08:55;99942.31;;;2.78;75.40
13869;BME280;7004;48.206;16.402;2023-03-03T00:11:22;99943.63;;;2.62;75.62
13869;BME280;7004;48.206;16.402;2023-03-03T00:13:52;99937.41;;;2.66;75.91
13869;BME280;7004;48.206;16.402;2023-03-03T00:16:34;99934.13;;;2.59;75.97
13869;BME280;7004;48.206;16.402;2023-03-03T00:19:06;99941.75;;;2.34;77.93
13869;BME280;7004;48.206;16.402;2023-03-03T00:21:45;99944.34;;;2.34;77.53
13869;BME280;7004;48.206;16.402;2023-03-03T00:26:45;99938.22;;;2.35;77.87
13869;BME280;7004;48.206;16.402;2023-03-03T00:31:54;99933.53;;;2.48;77.78
13869;BME280;7004;48.206;16.402;2023-03-03T00:34:26;99931.19;;;2.39;78.18
13869;BME280;7004;48.206;16.402;2023-03-03T00:36:56;99932.34;;;2.29;78.61
13869;BME280;7004;48.206;16.402;2023-03-03T00:39:29;99927.22;;;2.24;78.56
13869;BME280;7004;48.206;16.402;2023-03-03T00:41:58;99927.22;;;2.24;78.71
13869;BME280;7004;48.206;16.402;2023-03-03T00:47:39;99933.22;;;2.28;78.76
13869;BME280;7004;48.206;16.402;2023-03-03T00:52:52;99928.66;;;2.36;78.49
13869;BME280;7004;48.206;16.402;2023-03-03T00:55:20;99925.38;;;2.28;78.78
13869;BME280;7004;48.206;16.402;2023-03-03T00:57:46;99924.63;;;2.24;79.60
13869;BME280;7004;48.206;16.402;2023-03-03T01:00:14;99917.03;;;2.15;79.29
13869;BME280;7004;48.206;16.402;2023-03-03T01:02:41;99911.50;;;2.27;79.08
13869;BME280;7004;48.206;16.402;2023-03-03T01:05:16;99913.75;;;2.07;79.53
13869;BME280;7004;48.206;16.402;2023-03-03T01:07:43;99910.97;;;2.14;79.49
13869;BME280;7004;48.206;16.402;2023-03-03T01:10:10;99903.34;;;2.07;79.83
13869;BME280;7004;48.206;16.402;2023-03-03T01:12:36;99905.47;;;1.92;80.06
13869;BME280;7004;48.206;16.402;2023-03-03T01:15:07;99903.44;;;2.02;80.22
13869;BME280;7004;48.206;16.402;2023-03-03T01:17:35;99901.84;;;1.98;80.55
13869;BME280;7004;48.206;16.402;2023-03-03T01:20:02;99898.22;;;2.02;80.20
13869;BME280;7004;48.206;16.402;2023-03-03T01:22:28;99903.34;;;2.07;79.27
13869;BME280;7004;48.206;16.402;2023-03-03T01:24:55;99902.09;;;1.87;79.63
13869;BME280;7004;48.206;16.402;2023-03-03T01:27:21;99900.72;;;2.07;79.03
13869;BME280;7004;48.206;16.402;2023-03-03T01:29:48;99892.06;;;2.06;79.27
13869;BME280;7004;48.206;16.402;2023-03-03T01:32:15;99892.97;;;2.05;79.40
13869;BME280;7004;48.206;16.402;2023-03-03T01:34:43;99896.91;;;1.86;80.64
13869;BME280;7004;48.206;16.402;2023-03-03T01:37:09;99898.84;;;1.79;80.29
13869;BME280;7004;48.206;16.402;2023-03-03T01:39:35;99899.78;;;1.77;80.44
13869;BME280;7004;48.206;16.402;2023-03-03T01:42:02;99900.66;;;1.75;80.68
13869;BME280;7004;48.206;16.402;2023-03-03T01:44:30;99896.06;;;1.85;80.43
13869;BME280;7004;48.206;16.402;2023-03-03T01:47:21;99901.31;;;1.84;80.34
13869;BME280;7004;48.206;16.402;2023-03-03T01:50:06;99891.84;;;2.14;78.52
13869;BME280;7004;48.206;16.402;2023-03-03T01:52:42;99886.84;;;2.06;79.74
13869;BME280;7004;48.206;16.402;2023-03-03T01:55:20;99891.97;;;2.09;79.39
13869;BME280;7004;48.206;16.402;2023-03-03T01:58:30;99895.94;;;2.24;79.37
13869;BME280;7004;48.206;16.402;2023-03-03T02:01:05;99893.25;;;2.27;78.75
13869;BME280;7004;48.206;16.402;2023-03-03T02:03:33;99891.28;;;2.03;79.15
13869;BME280;7004;48.206;16.402;2023-03-03T02:06:15;99892.75;;;1.79;79.60
13869;BME280;7004;48.206;16.402;2023-03-03T02:11:37;99895.25;;;1.83;79.54
13869;BME280;7004;48.206;16.402;2023-03-03T02:14:06;99888.91;;;1.93;79.29
13869;BME280;7004;48.206;16.402;2023-03-03T02:16:34;99894.03;;;1.96;79.39
13869;BME280;7004;48.206;16.402;2023-03-03T02:19:01;99887.81;;;2.02;78.92
13869;BME280;7004;48.206;16.402;2023-03-03T02:21:28;99885.72;;;2.15;78.99
13869;BME280;7004;48.206;16.402;2023-03-03T02:26:35;99882.28;;;2.14;79.08
13869;BME280;7004;48.206;16.402;2023-03-03T02:29:03;99883.66;;;1.95;79.64
13869;BME280;7004;48.206;16.402;2023-03-03T02:31:30;99881.34;;;1.84;80.53
13869;BME280;7004;48.206;16.402;2023-03-03T02:33:57;99880.16;;;1.96;80.27
13869;BME280;7004;48.206;16.402;2023-03-03T02:36:28;99876.69;;;1.95;80.25
13869;BME280;7004;48.206;16.402;2023-03-03T02:44:39;99872.66;;;2.16;79.66
13869;BME280;7004;48.206;16.402;2023-03-03T02:47:06;99869.84;;;2.24;78.79
13869;BME280;7004;48.206;16.402;2023-03-03T02:49:35;99871.03;;;2.12;79.68
13869;BME280;7004;48.206;16.402;2023-03-03T02:52:04;99875.38;;;2.12;79.28
13869;BME280;7004;48.206;16.402;2023-03-03T02:54:32;99872.75;;;2.13;79.19
13869;BME280;7004;48.206;16.402;2023-03-03T02:56:59;99869.84;;;2.24;78.64
13869;BME280;7004;48.206;16.402;2023-03-03T02:59:26;99868.09;;;2.25;78.45
13869;BME280;7004;48.206;16.402;2023-03-03T03:01:54;99874.03;;;2.30;78.34
13869;BME280;7004;48.206;16.402;2023-03-03T03:04:25;99865.25;;;2.34;78.17
13869;BME280;7004;48.206;16.402;2023-03-03T03:06:53;99858.66;;;2.52;77.42
13869;BME280;7004;48.206;16.402;2023-03-03T03:09:22;99864.50;;;2.60;77.26
13869;BME280;7004;48.206;16.402;2023-03-03T03:11:49;99868.56;;;2.70;76.20
13869;BME280;7004;48.206;16.402;2023-03-03T03:14:16;99870.19;;;2.74;77.16
13869;BME280;7004;48.206;16.402;2023-03-03T03:16:43;99869.06;;;2.83;76.08
13869;BME280;7004;48.206;16.402;2023-03-03T03:19:09;99863.78;;;2.84;76.30
13869;BME280;7004;48.206;16.402;2023-03-03T03:21:35;99858.25;;;2.66;77.51
13869;BME280;7004;48.206;16.402;2023-03-03T03:24:05;99858.56;;;2.84;74.74
13869;BME280;7004;48.206;16.402;2023-03-03T03:26:31;99855.91;;;2.86;75.48
13869;BME280;7004;48.206;16.402;2023-03-03T03:29:01;99857.50;;;2.62;76.63
13869;BME280;7004;48.206;16.402;2023-03-03T03:31:29;99851.50;;;2.58;76.57
13869;BME280;7004;48.206;16.402;2023-03-03T03:33:56;99852.78;;;2.44;77.07
13869;BME280;7004;48.206;16.402;2023-03-03T03:36:22;99850.03;;;2.48;75.89
13869;BME280;7004;48.206;16.402;2023-03-03T03:38:49;99851.91;;;2.45;76.33
13869;BME280;7004;48.206;16.402;2023-03-03T03:41:15;99854.88;;;2.31;77.10
13869;BME280;7004;48.206;16.402;2023-03-03T03:43:42;99847.94;;;2.30;77.66
13869;BME280;7004;48.206;16.402;2023-03-03T03:46:08;99852.75;;;2.12;78.58
13869;BME280;7004;48.206;16.402;2023-03-03T03:48:35;99851.59;;;1.91;79.37
13869;BME280;7004;48.206;16.402;2023-03-03T03:51:02;99853.50;;;1.85;80.28
13869;BME280;7004;48.206;16.402;2023-03-03T03:53:29;99848.13;;;1.91;78.92
13869;BME280;7004;48.206;16.402;2023-03-03T03:55:56;99852.16;;;1.68;80.00
13869;BME280;7004;48.206;16.402;2023-03-03T03:58:23;99859.00;;;1.74;80.04
13869;BME280;7004;48.206;16.402;2023-03-03T04:00:49;99852.56;;;1.87;79.73
13869;BME280;7004;48.206;16.402;2023-03-03T04:03:20;99849.66;;;1.65;80.34
13869;BME280;7004;48.206;16.402;2023-03-03T04:05:53;99851.41;;;1.65;80.35
13869;BME280;7004;48.206;16.402;2023-03-03T04:08:22;99858.56;;;1.57;80.50
13869;BME280;7004;48.206;16.402;2023-03-03T04:10:54;99859.59;;;1.49;81.46
13869;BME280;7004;48.206;16.402;2023-03-03T04:13:23;99859.09;;;1.34;81.76
13869;BME280;7004;48.206;16.402;2023-03-03T04:15:53;99861.16;;;1.57;80.62
13869;BME280;7004;48.206;16.402;2023-03-03T04:18:30;99873.28;;;1.58;80.62
13869;BME280;7004;48.206;16.402;2023-03-03T04:21:04;99876.31;;;1.39;81.74
13869;BME280;7004;48.206;16.402;2023-03-03T04:23:36;99872.34;;;1.60;81.02
13869;BME280;7004;48.206;16.402;2023-03-03T04:26:07;99873.75;;;1.73;79.48
13869;BME280;7004;48.206;16.402;2023-03-03T04:28:39;99878.31;;;1.65;80.18
13869;BME280;7004;48.206;16.402;2023-03-03T04:31:13;99868.31;;;1.48;80.94
13869;BME280;7004;48.206;16.402;2023-03-03T04:33:41;99876.03;;;1.51;80.95
13869;BME280;7004;48.206;16.402;2023-03-03T04:36:08;99876.06;;;1.50;81.26
13869;BME280;7004;48.206;16.402;2023-03-03T04:38:34;99873.81;;;1.36;82.14
13869;BME280;7004;48.206;16.402;2023-03-03T04:41:00;99873.81;;;1.35;82.30
13869;BME280;7004;48.206;16.402;2023-03-03T04:43:27;99875.56;;;1.34;82.18
13869;BME280;7004;48.206;16.402;2023-03-03T04:45:53;99881.44;;;1.44;81.82
13869;BME280;7004;48.206;16.402;2023-03-03T04:48:20;99876.81;;;1.55;81.14
13869;BME280;7004;48.206;16.402;2023-03-03T04:50:47;99878.75;;;1.47;81.56
13869;BME280;7004;48.206;16.402;2023-03-03T04:53:14;99872.94;;;1.36;81.86
13869;BME280;7004;48.206;16.402;2023-03-03T04:55:44;99864.16;;;1.40;81.55
13869;BME280;7004;48.206;16.402;2023-03-03T04:58:11;99877.00;;;1.47;81.04
13869;BME280;7004;48.206;16.402;2023-03-03T05:00:38;99878.34;;;1.28;81.64
13869;BME280;7004;48.206;16.402;2023-03-03T05:03:09;99880.72;;;1.37;81.77
13869;BME280;7004;48.206;16.402;2023-03-03T05:05:35;99880.09;;;1.27;82.43
13869;BME280;7004;48.206;16.402;2023-03-03T05:08:01;99876.47;;;1.33;81.74
13869;BME280;7004;48.206;16.402;2023-03-03T05:10:27;99873.69;;;1.41;81.92
13869;BME280;7004;48.206;16.402;2023-03-03T05:12:54;99875.41;;;1.42;82.13
13869;BME280;7004;48.206;16.402;2023-03-03T05:15:23;99884.06;;;1.42;81.66
13869;BME280;7004;48.206;16.402;2023-03-03T05:17:49;99881.63;;;1.36;81.70
13869;BME280;7004;48.206;16.402;2023-03-03T05:20:18;99887.34;;;1.13;82.74
13869;BME280;7004;48.206;16.402;2023-03-03T05:22:44;99887.28;;;1.16;82.94
13869;BME280;7004;48.206;16.402;2023-03-03T05:25:12;99885.41;;;1.21;82.46
13869;BME280;7004;48.206;16.402;2023-03-03T05:27:38;99879.00;;;1.38;82.12
13869;BME280;7004;48.206;16.402;2023-03-03T05:30:05;99890.44;;;1.29;82.68
13869;BME280;7004;48.206;16.402;2023-03-03T05:32:32;99890.78;;;1.15;83.12
13869;BME280;7004;48.206;16.402;2023-03-03T05:34:58;99899.13;;;1.29;82.67
13869;BME280;7004;48.206;16.402;2023-03-03T05:37:25;99909.25;;;1.03;83.61
13869;BME280;7004;48.206;16.402;2023-03-03T05:39:51;99910.47;;;1.27;83.71
13869;BME280;7004;48.206;16.402;2023-03-03T05:42:19;99924.31;;;1.29;82.89
13869;BME280;7004;48.206;16.402;2023-03-03T05:44:49;99921.09;;;1.18;83.49
13869;BME280;7004;48.206;16.402;2023-03-03T05:47:15;99925.81;;;1.00;84.69
13869;BME280;7004;48.206;16.402;2023-03-03T05:49:42;99922.81;;;1.19;83.85
13869;BME280;7004;48.206;16.402;2023-03-03T05:52:08;99922.50;;;1.33;84.07
13869;BME280;7004;48.206;16.402;2023-03-03T05:54:35;99923.78;;;1.53;83.14
13869;BME280;7004;48.206;16.402;2023-03-03T05:57:01;99925.03;;;1.36;83.29
13869;BME280;7004;48.206;16.402;2023-03-03T05:59:28;99938.56;;;1.51;83.01
13869;BME280;7004;48.206;16.402;2023-03-03T06:01:54;99936.63;;;1.61;83.17
13869;BME280;7004;48.206;16.402;2023-03-03T06:04:20;99934.81;;;1.63;83.51
13869;BME280;7004;48.206;16.402;2023-03-03T06:06:47;99925.09;;;1.70;83.22
13869;BME280;7004;48.206;16.402;2023-03-03T06:09:13;99933.47;;;1.84;82.48
13869;BME280;7004;48.206;16.402;2023-03-03T06:11:39;99934.16;;;1.91;82.67
13869;BME280;7004;48.206;16.402;2023-03-03T06:14:05;99925.94;;;2.06;82.14
13869;BME280;7004;48.206;16.402;2023-03-03T06:16:31;99927.47;;;2.15;81.53
13869;BME280;7004;48.206;16.402;2023-03-03T06:18:57;99932.53;;;2.21;81.27
13869;BME280;7004;48.206;16.402;2023-03-03T06:21:23;99944.66;;;2.22;81.12
13869;BME280;7004;48.206;16.402;2023-03-03T06:23:49;99935.59;;;2.37;80.23
13869;BME280;7004;48.206;16.402;2023-03-03T06:26:15;99936.28;;;2.44;80.47
13869;BME280;7004;48.206;16.402;2023-03-03T06:28:42;99943.97;;;2.48;79.82
13869;BME280;7004;48.206;16.402;2023-03-03T06:31:08;99950.59;;;2.61;79.68
13869;BME280;7004;48.206;16.402;2023-03-03T06:33:34;99944.94;;;2.77;78.77
13869;BME280;7004;48.206;16.402;2023-03-03T06:36:00;99937.31;;;3.00;77.94
13869;BME280;7004;48.206;16.402;2023-03-03T06:38:26;99947.28;;;3.17;77.23
13869;BME280;7004;48.206;16.402;2023-03-03T06:40:52;99946.09;;;3.27;76.16
13869;BME280;7004;48.206;16.402;2023-03-03T06:43:19;99946.53;;;3.42;77.05
13869;BME280;7004;48.206;16.402;2023-03-03T06:45:45;99952.59;;;3.42;77.88
13869;BME280;7004;48.206;16.402;2023-03-03T06:48:11;99952.66;;;3.41;78.88
13869;BME280;7004;48.206;16.402;2023-03-03T06:50:38;99946.34;;;3.48;79.30
13869;BME280;7004;48.206;16.402;2023-03-03T06:53:14;99956.22;;;3.38;80.31
13869;BME280;7004;48.206;16.402;2023-03-03T06:55:41;99955.03;;;3.19;82.27
13869;BME280;7004;48.206;16.402;2023-03-03T06:58:19;99952.75;;;3.38;82.98
13869;BME280;7004;48.206;16.402;2023-03-03T07:00:55;99954.25;;;3.45;83.07
13869;BME280;7004;48.206;16.402;2023-03-03T07:03:35;99950.53;;;3.54;82.93
13869;BME280;7004;48.206;16.402;2023-03-03T07:06:23;99956.13;;;3.69;79.92
13869;BME280;7004;48.206;16.402;2023-03-03T07:08:51;99948.25;;;3.98;79.86
13869;BME280;7004;48.206;16.402;2023-03-03T07:11:21;99945.22;;;4.36;76.73
13869;BME280;7004;48.206;16.402;2023-03-03T07:13:53;99954.22;;;4.78;72.85
13869;BME280;7004;48.206;16.402;2023-03-03T07:16:26;99955.22;;;5.44;69.83
13869;BME280;7004;48.206;16.402;2023-03-03T07:18:59;99953.31;;;5.26;67.96
13869;BME280;7004;48.206;16.402;2023-03-03T07:21:33;99956.88;;;5.91;64.32
13869;BME280;7004;48.206;16.402;2023-03-03T07:26:39;99962.59;;;6.84;60.67
13869;BME280;7004;48.206;16.402;2023-03-03T07:29:28;99969.78;;;7.58;57.61
13869;BME280;7004;48.206;16.402;2023-03-03T07:32:00;99971.22;;;7.27;58.58
13869;BME280;7004;48.206;16.402;2023-03-03T07:34:39;99981.25;;;6.98;58.76
13869;BME280;7004;48.206;16.402;2023-03-03T07:37:38;99980.50;;;6.55;61.97
13869;BME280;7004;48.206;16.402;2023-03-03T07:42:59;100004.75;;;5.52;63.06
13869;BME280;7004;48.206;16.402;2023-03-03T07:45:35;99991.94;;;6.54;58.65
13869;BME280;7004;48.206;16.402;2023-03-03T07:48:25;100001.03;;;6.46;58.55
13869;BME280;7004;48.206;16.402;2023-03-03T07:50:51;100003.09;;;7.19;56.88
13869;BME280;7004;48.206;16.402;2023-03-03T07:53:30;99997.84;;;7.76;55.44
13869;BME280;7004;48.206;16.402;2023-03-03T07:56:00;99998.84;;;7.36;54.69
13869;BME280;7004;48.206;16.402;2023-03-03T07:58:38;100003.38;;;7.70;54.90
13869;BME280;7004;48.206;16.402;2023-03-03T08:01:59;100000.19;;;6.66;55.91
13869;BME280;7004;48.206;16.402;2023-03-03T08:06:59;100001.06;;;7.64;53.73
13869;BME280;7004;48.206;16.402;2023-03-03T08:09:43;99994.31;;;7.58;52.72
13869;BME280;7004;48.206;16.402;2023-03-03T08:12:40;99987.31;;;9.33;49.61
13869;BME280;7004;48.206;16.402;2023-03-03T08:15:24;99987.13;;;7.62;52.22
13869;BME280;7004;48.206;16.402;2023-03-03T08:17:53;99982.69;;;9.36;48.66
13869;BME280;7004;48.206;16.402;2023-03-03T08:20:54;99978.47;;;9.81;47.00
13869;BME280;7004;48.206;16.402;2023-03-03T08:23:21;99983.63;;;7.61;50.81
13869;BME280;7004;48.206;16.402;2023-03-03T08:25:49;99978.50;;;7.77;50.78
13869;BME280;7004;48.206;16.402;2023-03-03T08:28:17;99979.63;;;9.12;47.50
13869;BME280;7004;48.206;16.402;2023-03-03T08:30:44;99978.75;;;8.79;46.57
13869;BME280;7004;48.206;16.402;2023-03-03T08:33:11;99992.38;;;8.35;47.43
13869;BME280;7004;48.206;16.402;2023-03-03T08:35:37;99992.59;;;8.30;47.34
13869;BME280;7004;48.206;16.402;2023-03-03T08:38:04;99991.25;;;8.40;46.77
13869;BME280;7004;48.206;16.402;2023-03-03T08:40:32;99994.81;;;9.56;45.24
13869;BME280;7004;48.206;16.402;2023-03-03T08:42:58;99995.28;;;8.82;46.70
13869;BME280;7004;48.206;16.402;2023-03-03T08:45:25;99992.44;;;8.16;47.77
13869;BME280;7004;48.206;16.402;2023-03-03T08:47:52;99993.41;;;9.17;45.75
13869;BME280;7004;48.206;16.402;2023-03-03T08:50:19;99998.88;;;9.30;45.49
13869;BME280;7004;48.206;16.402;2023-03-03T08:52:45;99995.41;;;9.46;46.54
13869;BME280;7004;48.206;16.402;2023-03-03T08:55:12;99998.53;;;10.32;44.15
13869;BME280;7004;48.206;16.402;2023-03-03T08:57:39;99990.34;;;10.20;44.13
13869;BME280;7004;48.206;16.402;2023-03-03T09:00:09;100000.38;;;9.99;44.87
13869;BME280;7004;48.206;16.402;2023-03-03T09:02:35;100008.34;;;10.14;44.39
13869;BME280;7004;48.206;16.402;2023-03-03T09:05:03;100001.50;;;10.86;42.98
13869;BME280;7004;48.206;16.402;2023-03-03T09:07:30;100004.16;;;11.43;42.17
13869;BME280;7004;48.206;16.402;2023-03-03T09:09:56;100020.69;;;10.13;44.51
13869;BME280;7004;48.206;16.402;2023-03-03T09:12:35;100023.56;;;9.29;46.63
13869;BME280;7004;48.206;16.402;2023-03-03T09:17:50;100017.47;;;10.08;45.49
13869;BME280;7004;48.206;16.402;2023-03-03T09:20:41;100017.34;;;10.41;44.14
13869;BME280;7004;48.206;16.402;2023-03-03T09:23:36;100030.66;;;10.24;44.30
13869;BME280;7004;48.206;16.402;2023-03-03T09:26:30;100022.50;;;10.13;45.37
13869;BME280;7004;48.206;16.402;2023-03-03T09:29:22;100021.94;;;8.93;46.80
13869;BME280;7004;48.206;16.402;2023-03-03T09:31:58;100025.47;;;9.59;46.66
13869;BME280;7004;48.206;16.402;2023-03-03T09:34:41;100020.56;;;11.77;43.08
13869;BME280;7004;48.206;16.402;2023-03-03T09:37:25;100034.06;;;9.13;46.05
13869;BME280;7004;48.206;16.402;2023-03-03T09:39:56;100032.16;;;9.00;47.16
13869;BME280;7004;48.206;16.402;2023-03-03T09:42:52;100037.66;;;9.93;45.81
13869;BME280;7004;48.206;16.402;2023-03-03T09:51:22;100033.84;;;9.99;45.08
13869;BME280;7004;48.206;16.402;2023-03-03T09:54:23;100036.16;;;9.07;46.60
13869;BME280;7004;48.206;16.402;2023-03-03T10:14:31;100007.31;;;12.45;40.11
13869;BME280;7004;48.206;16.402;2023-03-03T10:20:27;100016.97;;;10.17;44.33
13869;BME280;7004;48.206;16.402;2023-03-03T10:40:59;99961.41;;;12.58;38.36
13869;BME280;7004;48.206;16.402;2023-03-03T10:44:00;99955.91;;;12.99;37.43
13869;BME280;7004;48.206;16.402;2023-03-03T10:52:37;99942.47;;;12.24;39.03
13869;BME280;7004;48.206;16.402;2023-03-03T10:56:16;99938.09;;;12.10;38.92
13869;BME280;7004;48.206;16.402;2023-03-03T11:04:58;99948.03;;;13.23;36.35
13869;BME280;7004;48.206;16.402;2023-03-03T11:07:39;99952.03;;;12.39;37.36
13869;BME280;7004;48.206;16.402;2023-03-03T11:12:59;99954.41;;;13.21;36.87
13869;BME280;7004;48.206;16.402;2023-03-03T11:25:00;99941.69;;;14.11;35.50
13869;BME280;7004;48.206;16.402;2023-03-03T11:27:56;99944.13;;;13.66;36.49
13869;BME280;7004;48.206;16.402;2023-03-03T11:31:35;99947.94;;;12.99;37.58
13869;BME280;7004;48.206;16.402;2023-03-03T11:36:54;99944.03;;;13.67;35.77
13869;BME280;7004;48.206;16.402;2023-03-03T11:39:24;99935.38;;;12.12;37.43
13869;BME280;7004;48.206;16.402;2023-03-03T11:42:19;99934.81;;;12.07;38.37
13869;BME280;7004;48.206;16.402;2023-03-03T11:44:55;99914.91;;;13.90;35.08
13869;BME280;7004;48.206;16.402;2023-03-03T11:47:44;99918.03;;;12.46;36.97
13869;BME280;7004;48.206;16.402;2023-03-03T11:50:24;99916.22;;;12.85;37.52
13869;BME280;7004;48.206;16.402;2023-03-03T11:55:55;99905.84;;;13.92;35.66
13869;BME280;7004;48.206;16.402;2023-03-03T11:58:46;99919.31;;;11.32;39.48
13869;BME280;7004;48.206;16.402;2023-03-03T12:01:42;99906.13;;;12.39;38.62
13869;BME280;7004;48.206;16.402;2023-03-03T12:04:35;99904.03;;;13.45;37.09
13869;BME280;7004;48.206;16.402;2023-03-03T12:12:43;99888.78;;;13.36;37.72
13869;BME280;7004;48.206;16.402;2023-03-03T12:15:26;99886.81;;;12.37;38.15
13869;BME280;7004;48.206;16.402;2023-03-03T12:24:50;99876.97;;;12.26;38.10
13869;BME280;7004;48.206;16.402;2023-03-03T12:28:13;99866.38;;;13.64;36.87
13869;BME280;7004;48.206;16.402;2023-03-03T12:48:48;99843.06;;;13.06;36.19
13869;BME280;7004;48.206;16.402;2023-03-03T12:56:58;99830.00;;;13.64;34.46
13869;BME280;7004;48.206;16.402;2023-03-03T13:02:33;99830.81;;;14.24;33.72
13869;BME280;7004;48.206;16.402;2023-03-03T13:05:39;99841.47;;;13.04;35.67
13869;BME280;7004;48.206;16.402;2023-03-03T13:08:35;99845.78;;;12.68;35.95
13869;BME280;7004;48.206;16.402;2023-03-03T13:24:37;99823.47;;;12.96;35.84
13869;BME280;7004;48.206;16.402;2023-03-03T13:27:17;99821.84;;;12.57;36.81
13869;BME280;7004;48.206;16.402;2023-03-03T13:30:24;99816.50;;;13.91;35.16
13869;BME280;7004;48.206;16.402;2023-03-03T13:33:07;99817.25;;;12.72;36.89
13869;BME280;7004;48.206;16.402;2023-03-03T13:35:53;99822.16;;;12.52;37.38
13869;BME280;7004;48.206;16.402;2023-03-03T13:38:38;99814.63;;;12.46;37.69
13869;BME280;7004;48.206;16.402;2023-03-03T13:41:24;99813.13;;;12.55;37.76
13869;BME280;7004;48.206;16.402;2023-03-03T13:44:05;99812.19;;;13.42;36.84
13869;BME280;7004;48.206;16.402;2023-03-03T13:47:15;99817.69;;;12.65;37.61
13869;BME280;7004;48.206;16.402;2023-03-03T13:49:59;99822.16;;;13.02;36.95
13869;BME280;7004;48.206;16.402;2023-03-03T13:52:32;99817.56;;;13.17;36.76
13869;BME280;7004;48.206;16.402;2023-03-03T13:55:35;99816.31;;;12.47;38.02
13869;BME280;7004;48.206;16.402;2023-03-03T14:07:24;99813.97;;;12.42;38.02
13869;BME280;7004;48.206;16.402;2023-03-03T14:10:31;99813.00;;;11.92;38.86
13869;BME280;7004;48.206;16.402;2023-03-03T14:13:12;99810.66;;;12.77;37.96
13869;BME280;7004;48.206;16.402;2023-03-03T14:21:08;99802.72;;;11.88;38.68
13869;BME280;7004;48.206;16.402;2023-03-03T14:24:03;99802.22;;;12.08;38.38
13869;BME280;7004;48.206;16.402;2023-03-03T14:26:55;99798.50;;;12.23;37.99
13869;BME280;7004;48.206;16.402;2023-03-03T14:31:54;99794.56;;;12.55;38.39
13869;BME280;7004;48.206;16.402;2023-03-03T14:34:36;99795.56;;;12.15;38.33
13869;BME280;7004;48.206;16.402;2023-03-03T14:37:29;99793.22;;;12.36;38.37
13869;BME280;7004;48.206;16.402;2023-03-03T14:40:31;99792.78;;;12.42;38.56
13869;BME280;7004;48.206;16.402;2023-03-03T14:43:00;99789.41;;;12.15;38.49
13869;BME280;7004;48.206;16.402;2023-03-03T14:45:36;99793.75;;;12.41;39.25
13869;BME280;7004;48.206;16.402;2023-03-03T14:48:23;99793.75;;;12.16;39.44
13869;BME280;7004;48.206;16.402;2023-03-03T14:51:14;99789.88;;;11.81;39.77
13869;BME280;7004;48.206;16.402;2023-03-03T14:53:45;99789.41;;;12.02;39.13
13869;BME280;7004;48.206;16.402;2023-03-03T14:59:22;99791.31;;;11.60;40.29
13869;BME280;7004;48.206;16.402;2023-03-03T15:02:02;99791.41;;;11.58;38.99
13869;BME280;7004;48.206;16.402;2023-03-03T15:04:33;99785.78;;;11.90;37.95
13869;BME280;7004;48.206;16.402;2023-03-03T15:07:34;99789.06;;;11.94;39.04
13869;BME280;7004;48.206;16.402;2023-03-03T15:10:02;99789.56;;;11.46;38.73
13869;BME280;7004;48.206;16.402;2023-03-03T15:31:32;99791.91;;;10.97;32.98
13869;BME280;7004;48.206;16.402;2023-03-03T15:34:38;99794.81;;;11.06;32.40
13869;BME280;7004;48.206;16.402;2023-03-03T15:37:36;99790.63;;;11.44;32.32
13869;BME280;7004;48.206;16.402;2023-03-03T15:51:07;99788.06;;;10.74;32.16
13869;BME280;7004;48.206;16.402;2023-03-03T15:56:50;99784.50;;;10.60;32.60
13869;BME280;7004;48.206;16.402;2023-03-03T16:03:00;99796.00;;;10.74;33.13
13869;BME280;7004;48.206;16.402;2023-03-03T16:09:23;99788.06;;;10.74;33.45
13869;BME280;7004;48.206;16.402;2023-03-03T16:23:50;99802.91;;;10.47;34.96
13869;BME280;7004;48.206;16.402;2023-03-03T16:26:31;99805.38;;;10.36;34.73
13869;BME280;7004;48.206;16.402;2023-03-03T16:32:38;99805.38;;;10.36;35.53
13869;BME280;7004;48.206;16.402;2023-03-03T16:35:25;99814.25;;;10.35;34.74
13869;BME280;7004;48.206;16.402;2023-03-03T16:38:11;99818.09;;;10.30;34.85
13869;BME280;7004;48.206;16.402;2023-03-03T16:40:59;99823.25;;;10.17;35.73
13869;BME280;7004;48.206;16.402;2023-03-03T16:46:46;99832.38;;;9.97;36.36
13869;BME280;7004;48.206;16.402;2023-03-03T16:49:47;99834.81;;;9.70;37.12
13869;BME280;7004;48.206;16.402;2023-03-03T16:52:28;99839.66;;;9.77;36.95
13869;BME280;7004;48.206;16.402;2023-03-03T16:55:06;99836.09;;;9.78;37.17
13869;BME280;7004;48.206;16.402;2023-03-03T16:58:18;99849.38;;;9.77;37.42
13869;BME280;7004;48.206;16.402;2023-03-03T17:01:11;99845.69;;;9.65;36.89
13869;BME280;7004;48.206;16.402;2023-03-03T17:09:58;99868.66;;;9.63;36.41
13869;BME280;7004;48.206;16.402;2023-03-03T17:15:51;99874.81;;;9.48;36.90
13869;BME280;7004;48.206;16.402;2023-03-03T17:24:42;99887.31;;;9.12;37.45
13869;BME280;7004;48.206;16.402;2023-03-03T17:30:09;99893.22;;;8.84;37.79
13869;BME280;7004;48.206;16.402;2023-03-03T17:33:12;99887.47;;;8.93;38.00
13869;BME280;7004;48.206;16.402;2023-03-03T17:41:57;99899.16;;;8.72;38.67
13869;BME280;7004;48.206;16.402;2023-03-03T17:44:51;99899.06;;;8.73;38.54
13869;BME280;7004;48.206;16.402;2023-03-03T18:07:45;99912.22;;;8.40;39.01
13869;BME280;7004;48.206;16.402;2023-03-03T18:13:19;99914.78;;;8.42;39.84
13869;BME280;7004;48.206;16.402;2023-03-03T18:19:50;99915.75;;;8.22;39.67
13869;BME280;7004;48.206;16.402;2023-03-03T18:22:32;99918.22;;;8.25;39.51
13869;BME280;7004;48.206;16.402;2023-03-03T18:26:27;99928.63;;;8.28;39.57
13869;BME280;7004;48.206;16.402;2023-03-03T18:28:20;99925.53;;;8.20;40.09
13869;BME280;7004;48.206;16.402;2023-03-03T18:30:58;99929.19;;;8.17;39.64
13869;BME280;7004;48.206;16.402;2023-03-03T18:34:02;99933.00;;;7.93;40.51
13869;BME280;7004;48.206;16.402;2023-03-03T18:39:01;99938.41;;;7.72;42.20
13869;BME280;7004;48.206;16.402;2023-03-03T18:41:34;99942.38;;;7.98;41.86
13869;BME280;7004;48.206;16.402;2023-03-03T18:44:30;99945.50;;;7.70;42.58